Time;durP1;ratioP1;P1;durP2;ratioP2;P2;SDS_P1;SDS_P2;PMS_P1;PMS_P2;Temp;Humidity;BMP_temperature;BMP_pressure;BME280_temperature;BME280_humidity;BME280_pressure;Samples;Min_cycle;Max_cycle;Signal;HPM_P1;HPM_P2
2021/12/08 00:00:40;;;;;;;1.55;1.15;;;-0.70;68.80;;;;;;5077714;28;46586;-66
2021/12/08 00:03:09;;;;;;;3.70;1.52;;;-0.80;69.40;;;;;;5069775;28;48976;-67
2021/12/08 00:05:36;;;;;;;1.75;1.50;;;-0.90;70.00;;;;;;5068937;28;46371;-66
2021/12/08 00:08:04;;;;;;;3.33;1.38;;;-1.00;70.10;;;;;;5069096;28;46371;-66
2021/12/08 00:13:05;;;;;;;3.30;1.65;;;-1.00;70.50;;;;;;5071693;27;46225;-66
2021/12/08 00:15:33;;;;;;;2.10;1.35;;;-1.00;70.20;;;;;;5073258;28;46425;-65
2021/12/08 00:18:00;;;;;;;4.00;1.52;;;-0.90;70.00;;;;;;5074168;28;46366;-66
2021/12/08 00:20:29;;;;;;;4.30;1.75;;;-0.80;69.60;;;;;;5079557;27;45942;-66
2021/12/08 00:22:55;;;;;;;1.80;1.40;;;-0.60;68.80;;;;;;5079163;27;48037;-67
2021/12/08 00:25:22;;;;;;;3.20;1.40;;;-0.50;68.90;;;;;;5065839;28;46522;-66
2021/12/08 00:27:48;;;;;;;1.58;1.13;;;-0.40;69.00;;;;;;5069846;27;46434;-66
2021/12/08 00:30:16;;;;;;;2.00;1.70;;;-0.30;69.10;;;;;;5070044;28;46391;-65
2021/12/08 00:32:42;;;;;;;6.45;1.48;;;-0.30;68.90;;;;;;5069469;28;47879;-66
2021/12/08 00:35:08;;;;;;;3.03;1.45;;;-0.30;69.00;;;;;;5071593;28;46326;-65
2021/12/08 00:37:34;;;;;;;3.40;1.40;;;-0.20;69.00;;;;;;5074183;27;46425;-67
2021/12/08 00:40:00;;;;;;;3.90;1.30;;;-0.10;68.80;;;;;;5075240;28;46296;-66
2021/12/08 00:42:26;;;;;;;2.33;1.50;;;-0.10;68.50;;;;;;5065823;28;46365;-65
2021/12/08 00:44:52;;;;;;;1.83;1.27;;;-0.20;68.80;;;;;;5079754;28;46321;-66
2021/12/08 00:47:18;;;;;;;2.28;1.50;;;-0.20;69.10;;;;;;5071364;27;46618;-65
2021/12/08 00:49:46;;;;;;;2.42;1.63;;;-0.20;69.20;;;;;;5073300;28;46578;-65
2021/12/08 00:52:16;;;;;;;2.55;1.58;;;-0.30;69.10;;;;;;5075642;28;48962;-66
2021/12/08 00:54:42;;;;;;;2.13;1.30;;;-0.40;69.00;;;;;;5080254;28;46392;-66
2021/12/08 00:57:09;;;;;;;2.67;1.35;;;-0.50;68.90;;;;;;5070274;28;46436;-67
2021/12/08 00:59:38;;;;;;;1.63;1.40;;;-0.50;68.90;;;;;;5071809;28;46361;-65
2021/12/08 01:02:05;;;;;;;2.67;1.65;;;-0.50;68.90;;;;;;5080125;28;48126;-66
2021/12/08 01:04:35;;;;;;;2.67;1.38;;;-0.60;69.10;;;;;;5073389;27;46813;-65
2021/12/08 01:07:02;;;;;;;1.55;1.30;;;-0.50;68.90;;;;;;5075279;28;45822;-67
2021/12/08 01:09:28;;;;;;;1.75;1.30;;;-0.50;68.90;;;;;;5077908;27;46361;-66
2021/12/08 01:11:57;;;;;;;2.23;1.50;;;-0.50;68.90;;;;;;5071438;27;46257;-66
2021/12/08 01:14:23;;;;;;;2.90;1.38;;;-0.40;69.00;;;;;;5065472;28;46564;-67
2021/12/08 01:16:51;;;;;;;3.33;1.73;;;-0.40;69.00;;;;;;5070600;28;46366;-65
2021/12/08 01:19:17;;;;;;;2.05;1.35;;;-0.30;69.10;;;;;;5073427;27;46414;-65
2021/12/08 01:21:43;;;;;;;2.08;1.40;;;-0.20;69.20;;;;;;5070551;28;46547;-67
2021/12/08 01:24:10;;;;;;;5.67;1.77;;;-0.10;68.40;;;;;;5071300;27;46422;-67
2021/12/08 01:26:36;;;;;;;2.90;1.83;;;0.00;68.20;;;;;;5072983;28;46513;-67
2021/12/08 01:29:03;;;;;;;2.28;1.55;;;0.00;68.10;;;;;;5070757;27;46373;-64
2021/12/08 01:31:29;;;;;;;2.40;1.70;;;0.00;68.10;;;;;;5076262;28;46245;-65
2021/12/08 01:33:55;;;;;;;4.75;2.08;;;0.10;68.00;;;;;;5074309;27;45917;-66
2021/12/08 01:36:21;;;;;;;1.50;1.30;;;0.20;67.80;;;;;;5072044;27;46426;-66
2021/12/08 01:38:47;;;;;;;2.37;1.63;;;0.30;67.60;;;;;;5067980;28;45874;-67
2021/12/08 01:41:13;;;;;;;2.60;1.70;;;0.30;67.40;;;;;;5086015;27;48265;-67
2021/12/08 01:45:56;;;;;;;5.75;1.75;;;0.30;67.30;;;;;;5072168;28;46518;-67
2021/12/08 01:46:25;;;;;;;4.13;2.00;;;0.40;67.30;;;;;;5074161;28;46627;-66
2021/12/08 01:48:51;;;;;;;3.50;2.00;;;0.40;67.20;;;;;;5076758;28;46391;-65
2021/12/08 01:51:18;;;;;;;2.70;1.60;;;0.40;67.10;;;;;;5075642;27;48948;-68
2021/12/08 01:53:48;;;;;;;2.20;1.40;;;0.40;67.20;;;;;;5071308;27;45905;-65
2021/12/08 01:56:14;;;;;;;4.35;1.60;;;0.30;67.30;;;;;;5072812;28;46310;-66
2021/12/08 01:58:40;;;;;;;2.17;1.25;;;0.30;67.40;;;;;;5073729;28;46357;-66
2021/12/08 02:01:11;;;;;;;1.70;1.50;;;0.30;67.40;;;;;;5073196;27;48939;-66
2021/12/08 02:03:39;;;;;;;1.90;1.20;;;0.20;67.40;;;;;;5091187;27;46257;-66
2021/12/08 02:06:07;;;;;;;3.75;1.65;;;0.30;67.60;;;;;;5073926;27;46487;-65
2021/12/08 02:08:33;;;;;;;2.13;1.85;;;0.30;67.50;;;;;;5066582;28;46548;-66
2021/12/08 02:11:02;;;;;;;4.20;1.33;;;0.30;67.50;;;;;;5066393;28;48723;-66
2021/12/08 02:13:30;;;;;;;1.77;1.38;;;0.40;67.50;;;;;;5068323;28;46662;-67
2021/12/08 02:15:56;;;;;;;3.15;1.73;;;0.40;67.30;;;;;;5069909;28;46346;-66
2021/12/08 02:18:22;;;;;;;1.97;1.43;;;0.50;67.10;;;;;;5070896;28;46371;-67
2021/12/08 02:20:49;;;;;;;1.77;1.43;;;0.40;66.90;;;;;;5074954;28;46492;-67
2021/12/08 02:23:16;;;;;;;1.85;1.40;;;0.40;67.10;;;;;;5069388;28;46477;-66
2021/12/08 02:25:44;;;;;;;1.92;1.52;;;0.30;67.30;;;;;;5077148;28;46376;-66
2021/12/08 02:28:10;;;;;;;2.00;1.70;;;0.40;67.50;;;;;;5068810;27;46371;-66
2021/12/08 02:30:51;;;;;;;1.30;1.20;;;0.40;67.40;;;;;;5071741;28;47841;-66
2021/12/08 02:49:40;;;;;;;2.05;1.48;;;0.70;68.20;;;;;;5072570;28;46569;-66
2021/12/08 02:52:09;;;;;;;3.15;1.92;;;0.60;66.90;;;;;;5075290;28;47750;-65
2021/12/08 02:54:39;;;;;;;2.85;2.00;;;0.70;67.00;;;;;;5077547;28;46394;-66
2021/12/08 02:57:06;;;;;;;2.03;1.80;;;0.60;67.00;;;;;;5078855;28;46375;-66
2021/12/08 02:59:32;;;;;;;3.30;1.75;;;0.50;67.20;;;;;;5084693;28;46417;-66
2021/12/08 03:02:01;;;;;;;3.15;1.90;;;0.60;67.40;;;;;;5076876;28;48884;-66
2021/12/08 03:04:27;;;;;;;3.75;2.13;;;0.60;67.00;;;;;;5073030;28;46450;-65
2021/12/08 03:06:53;;;;;;;3.25;2.22;;;0.70;66.90;;;;;;5072346;28;46413;-66
2021/12/08 03:09:19;;;;;;;3.87;1.70;;;0.70;66.90;;;;;;5079444;28;46382;-66
2021/12/08 03:11:48;;;;;;;3.47;2.10;;;0.70;66.90;;;;;;5077171;28;47790;-65
2021/12/08 03:14:15;;;;;;;4.32;1.90;;;0.80;66.90;;;;;;5074635;28;46659;-65
2021/12/08 03:16:45;;;;;;;3.63;2.50;;;0.80;66.70;;;;;;5077363;28;46370;-64
2021/12/08 03:19:11;;;;;;;2.75;1.95;;;0.80;66.60;;;;;;5079553;28;46365;-64
2021/12/08 03:21:37;;;;;;;2.40;1.80;;;0.80;66.70;;;;;;5077258;28;46521;-64
2021/12/08 03:24:17;;;;;;;2.63;1.92;;;0.80;66.80;;;;;;5072759;28;46411;-66
2021/12/08 03:26:56;;;;;;;4.40;2.22;;;0.80;67.00;;;;;;5080578;28;46536;-67
2021/12/08 03:29:37;;;;;;;8.45;2.03;;;0.90;67.00;;;;;;5072472;28;46381;-66
2021/12/08 03:32:08;;;;;;;3.90;1.80;;;0.90;67.00;;;;;;5072647;28;48917;-64
2021/12/08 03:34:38;;;;;;;4.97;3.15;;;0.90;67.00;;;;;;5078964;27;45904;-64
2021/12/08 03:37:07;;;;;;;3.17;2.00;;;0.90;67.10;;;;;;5080929;28;46374;-66
2021/12/08 03:39:34;;;;;;;5.90;1.60;;;1.00;67.20;;;;;;5073761;28;46394;-65
2021/12/08 03:42:01;;;;;;;4.90;1.80;;;1.00;67.10;;;;;;5067918;28;46274;-64
2021/12/08 03:44:27;;;;;;;3.60;2.10;;;1.00;67.00;;;;;;5070033;28;46746;-64
2021/12/08 03:47:00;;;;;;;3.20;1.40;;;1.00;67.00;;;;;;5076403;28;46326;-66
2021/12/08 03:49:28;;;;;;;1.63;1.40;;;1.10;67.20;;;;;;5079960;28;46437;-66
2021/12/08 03:52:00;;;;;;;3.10;1.52;;;1.10;67.10;;;;;;5075206;27;48765;-65
2021/12/08 03:54:27;;;;;;;3.05;1.75;;;1.20;68.30;;;;;;5077051;28;46587;-65
2021/12/08 03:56:52;;;;;;;4.20;1.35;;;1.20;67.10;;;;;;5072054;28;46335;-65
2021/12/08 03:59:18;;;;;;;2.57;1.37;;;1.30;67.00;;;;;;5079769;27;45952;-66
2021/12/08 04:01:44;;;;;;;2.63;1.43;;;1.30;66.80;;;;;;5076300;27;48976;-66
2021/12/08 04:04:11;;;;;;;3.33;1.80;;;1.30;66.60;;;;;;5073488;28;46505;-66
2021/12/08 04:06:46;;;;;;;2.90;1.70;;;1.30;66.60;;;;;;5075162;28;46396;-67
2021/12/08 04:09:18;;;;;;;3.17;1.88;;;1.20;66.60;;;;;;5074638;28;45992;-65
2021/12/08 04:11:46;;;;;;;4.40;1.48;;;1.20;66.70;;;;;;5072009;27;47064;-66
2021/12/08 04:14:17;;;;;;;2.83;1.92;;;1.20;66.50;;;;;;5071135;28;46351;-65
2021/12/08 04:16:49;;;;;;;2.78;1.52;;;1.20;66.50;;;;;;5065716;28;46400;-65
2021/12/08 04:19:16;;;;;;;4.85;2.25;;;1.30;66.60;;;;;;5081547;28;46573;-65
2021/12/08 04:21:43;;;;;;;3.85;2.03;;;1.30;66.60;;;;;;5076294;28;48149;-67
2021/12/08 04:24:09;;;;;;;3.67;2.08;;;1.30;66.60;;;;;;5090479;27;46389;-65
2021/12/08 04:26:50;;;;;;;2.80;1.83;;;1.30;66.60;;;;;;5075418;28;46294;-65
2021/12/08 04:29:21;;;;;;;3.75;2.03;;;1.30;66.70;;;;;;5079756;27;45830;-66
2021/12/08 04:31:49;;;;;;;3.20;2.17;;;1.30;66.90;;;;;;5071013;27;48745;-65
2021/12/08 04:34:23;;;;;;;3.78;1.50;;;1.40;66.90;;;;;;5069782;28;46342;-65
2021/12/08 04:36:51;;;;;;;3.30;2.10;;;1.40;66.90;;;;;;5074515;28;46415;-65
2021/12/08 04:39:38;;;;;;;6.35;2.20;;;1.50;66.90;;;;;;5070760;27;46431;-66
2021/12/08 04:42:09;;;;;;;3.17;2.10;;;1.50;66.80;;;;;;5070066;28;47747;-66
2021/12/08 04:44:43;;;;;;;3.65;2.15;;;1.50;66.90;;;;;;5075053;27;46371;-66
2021/12/08 04:50:24;;;;;;;3.35;2.00;;;1.60;66.80;;;;;;5074327;27;46310;-66
2021/12/08 05:01:23;;;;;;;3.00;2.00;;;1.60;67.00;;;;;;5071631;28;46331;-66
2021/12/08 05:06:47;;;;;;;4.97;1.95;;;1.70;66.60;;;;;;5069535;28;46375;-65
2021/12/08 05:09:34;;;;;;;7.70;3.28;;;1.70;66.40;;;;;;5076211;28;46463;-66
2021/12/08 05:12:02;;;;;;;4.28;2.85;;;1.70;66.20;;;;;;5074556;28;46497;-66
2021/12/08 05:14:33;;;;;;;3.75;2.28;;;1.70;66.30;;;;;;5075537;27;47784;-66
2021/12/08 05:17:13;;;;;;;4.55;2.65;;;1.80;66.40;;;;;;5073591;27;46394;-65
2021/12/08 05:19:41;;;;;;;3.42;2.70;;;1.80;66.10;;;;;;5091171;27;46518;-66
2021/12/08 05:22:21;;;;;;;4.43;2.13;;;1.80;66.00;;;;;;5076246;27;45882;-65
2021/12/08 05:24:52;;;;;;;3.63;1.92;;;1.80;65.80;;;;;;5079676;28;48603;-64
2021/12/08 05:27:22;;;;;;;3.72;2.38;;;1.80;65.90;;;;;;5069366;28;46366;-65
2021/12/08 05:29:55;;;;;;;3.70;1.83;;;1.80;65.80;;;;;;5070852;28;46316;-65
2021/12/08 05:32:21;;;;;;;4.70;2.42;;;1.80;65.70;;;;;;5072528;27;46240;-65
2021/12/08 05:34:48;;;;;;;4.30;2.40;;;1.80;65.60;;;;;;5069396;28;49127;-67
2021/12/08 05:37:17;;;;;;;4.65;2.33;;;1.80;65.70;;;;;;5076731;28;46490;-65
2021/12/08 05:39:42;;;;;;;4.70;2.65;;;1.90;65.70;;;;;;5076525;28;46395;-66
2021/12/08 05:42:14;;;;;;;3.17;2.27;;;1.90;65.70;;;;;;5072982;28;46583;-66
2021/12/08 05:44:41;;;;;;;4.10;2.75;;;1.90;65.70;;;;;;5066822;28;49032;-67
2021/12/08 05:47:20;;;;;;;5.00;3.03;;;1.90;65.50;;;;;;5068558;28;46459;-65
2021/12/08 05:49:47;;;;;;;5.10;2.80;;;1.90;65.40;;;;;;5073547;28;46257;-65
2021/12/08 05:52:14;;;;;;;3.53;2.20;;;1.90;65.40;;;;;;5069293;28;46427;-65
2021/12/08 05:54:43;;;;;;;6.05;3.00;;;1.90;65.60;;;;;;5073304;28;47332;-65
2021/12/08 05:57:31;;;;;;;4.18;2.80;;;1.90;65.50;;;;;;5075483;28;46318;-66
2021/12/08 05:59:59;;;;;;;3.58;2.53;;;1.90;65.50;;;;;;5080280;28;45826;-66
2021/12/08 06:02:32;;;;;;;4.35;2.30;;;2.00;65.40;;;;;;5078373;27;45914;-66
2021/12/08 06:04:59;;;;;;;4.30;3.25;;;2.00;65.30;;;;;;5077026;28;48076;-66
2021/12/08 06:07:25;;;;;;;3.78;2.38;;;2.00;65.30;;;;;;5070515;27;46358;-65
2021/12/08 06:09:54;;;;;;;4.93;2.80;;;2.10;65.30;;;;;;5070181;27;46320;-66
2021/12/08 06:12:21;;;;;;;4.95;2.75;;;2.10;65.30;;;;;;5072638;28;46368;-66
2021/12/08 06:14:53;;;;;;;6.22;2.92;;;2.00;66.80;;;;;;5070504;27;46420;-66
2021/12/08 06:17:21;;;;;;;5.82;3.10;;;2.10;65.80;;;;;;5066068;28;46363;-66
2021/12/08 06:19:47;;;;;;;6.53;3.38;;;2.10;65.50;;;;;;5076427;28;45786;-66
2021/12/08 06:22:16;;;;;;;4.18;2.30;;;2.10;65.40;;;;;;5079117;28;46470;-66
2021/12/08 06:24:42;;;;;;;5.35;2.75;;;2.20;65.30;;;;;;5069053;27;47795;-65
2021/12/08 06:27:08;;;;;;;4.40;2.70;;;2.20;65.40;;;;;;5073737;27;46559;-65
2021/12/08 06:29:35;;;;;;;4.05;2.58;;;2.20;65.40;;;;;;5073218;28;46459;-66
2021/12/08 06:32:03;;;;;;;4.35;2.83;;;2.20;65.40;;;;;;5067895;28;46560;-67
2021/12/08 06:34:33;;;;;;;3.95;2.50;;;2.20;65.40;;;;;;5067493;28;48997;-66
2021/12/08 06:37:31;;;;;;;4.45;2.80;;;2.20;65.50;;;;;;5070789;27;46368;-67
2021/12/08 06:40:09;;;;;;;4.50;2.85;;;2.20;65.40;;;;;;5063961;27;46363;-67
2021/12/08 06:42:38;;;;;;;5.63;2.30;;;2.20;65.50;;;;;;5065931;27;46498;-66
2021/12/08 06:45:10;;;;;;;3.20;2.25;;;2.20;65.40;;;;;;5085013;27;46245;-66
2021/12/08 06:47:36;;;;;;;4.03;2.05;;;2.20;65.50;;;;;;5070580;28;46395;-66
2021/12/08 06:50:08;;;;;;;3.23;2.23;;;2.20;65.40;;;;;;5072829;28;46495;-66
2021/12/08 06:52:38;;;;;;;10.85;5.05;;;2.20;65.60;;;;;;5077403;27;46461;-65
2021/12/08 06:55:22;;;;;;;34.78;13.13;;;2.20;65.80;;;;;;5068505;27;48876;-65
2021/12/08 06:57:56;;;;;;;35.78;13.85;;;2.20;65.60;;;;;;5068684;27;46237;-67
2021/12/08 07:01:15;;;;;;;29.17;10.50;;;2.30;65.60;;;;;;5067477;28;46454;-65
2021/12/08 07:06:58;;;;;;;14.75;6.85;;;2.30;65.40;;;;;;5068141;27;46823;-66
2021/12/08 07:09:26;;;;;;;32.67;12.10;;;2.40;65.40;;;;;;5071089;27;46522;-67
2021/12/08 07:11:55;;;;;;;20.08;6.85;;;2.40;65.30;;;;;;5071399;27;46438;-67
2021/12/08 07:14:23;;;;;;;9.70;4.70;;;2.40;65.40;;;;;;5076380;27;46450;-66
2021/12/08 07:16:54;;;;;;;8.85;3.38;;;2.40;65.40;;;;;;5079572;27;47966;-66
2021/12/08 07:19:33;;;;;;;7.82;4.65;;;2.40;65.40;;;;;;5092235;27;46290;-67
2021/12/08 07:22:02;;;;;;;6.70;3.70;;;2.50;65.50;;;;;;5075452;28;46466;-67
2021/12/08 07:24:34;;;;;;;9.32;3.75;;;2.50;65.50;;;;;;5073620;27;46381;-67
2021/12/08 07:27:05;;;;;;;9.35;4.07;;;2.60;65.60;;;;;;5072317;27;47824;-66
2021/12/08 07:29:36;;;;;;;6.70;3.63;;;2.60;65.50;;;;;;5078367;28;46398;-66
2021/12/08 07:32:13;;;;;;;6.50;3.22;;;2.70;65.40;;;;;;5078964;27;46474;-66
2021/12/08 07:34:40;;;;;;;8.40;4.20;;;2.70;65.30;;;;;;5073535;28;46515;-67
2021/12/08 07:37:11;;;;;;;7.75;2.88;;;2.80;65.50;;;;;;5088954;27;46442;-67
2021/12/08 07:39:44;;;;;;;6.95;3.13;;;2.70;65.80;;;;;;5076221;28;46323;-67
2021/12/08 07:42:34;;;;;;;5.25;2.55;;;2.60;66.20;;;;;;5079804;27;46347;-66
2021/12/08 07:45:06;;;;;;;6.18;2.90;;;2.70;66.40;;;;;;5073309;28;46455;-66
2021/12/08 07:47:32;;;;;;;3.83;2.40;;;2.70;66.20;;;;;;5068681;28;47734;-67
2021/12/08 07:50:09;;;;;;;14.13;3.10;;;2.70;65.90;;;;;;5074660;27;46459;-66
2021/12/08 07:52:40;;;;;;;3.58;2.78;;;2.70;65.80;;;;;;5073815;27;46406;-66
2021/12/08 07:55:18;;;;;;;5.15;2.88;;;2.70;66.10;;;;;;5074753;28;46600;-66
2021/12/08 07:57:45;;;;;;;4.13;2.55;;;2.70;66.00;;;;;;5079534;28;48066;-66
2021/12/08 08:00:19;;;;;;;7.55;3.45;;;2.80;65.80;;;;;;5075251;27;46381;-66
2021/12/08 08:02:45;;;;;;;6.80;3.53;;;2.80;65.90;;;;;;5087208;27;45780;-65
2021/12/08 08:05:13;;;;;;;6.97;3.25;;;2.80;66.00;;;;;;5076819;28;46384;-67
2021/12/08 08:07:41;;;;;;;9.30;4.55;;;2.90;65.90;;;;;;5078096;28;47979;-66
2021/12/08 08:10:13;;;;;;;9.10;5.05;;;2.90;65.80;;;;;;5072026;27;46371;-66
2021/12/08 08:12:41;;;;;;;7.15;3.60;;;2.90;65.80;;;;;;5069214;28;46023;-68
2021/12/08 08:15:21;;;;;;;5.53;3.30;;;2.90;65.60;;;;;;5070932;27;46417;-66
2021/12/08 08:17:51;;;;;;;8.23;3.97;;;3.00;65.50;;;;;;5087432;27;47794;-65
2021/12/08 08:20:33;;;;;;;3.72;2.20;;;2.90;65.90;;;;;;5075284;27;46518;-66
2021/12/08 08:23:00;;;;;;;5.40;3.42;;;2.80;66.30;;;;;;5074893;27;46370;-66
2021/12/08 08:25:33;;;;;;;6.80;3.00;;;2.80;66.30;;;;;;5072530;27;46528;-65
2021/12/08 08:27:59;;;;;;;4.68;2.90;;;2.80;66.20;;;;;;5072547;28;48042;-66
2021/12/08 08:30:31;;;;;;;3.17;2.40;;;2.90;66.50;;;;;;5076968;28;46533;-67
2021/12/08 08:32:58;;;;;;;9.07;2.45;;;2.90;66.60;;;;;;5075262;28;46414;-66
2021/12/08 08:35:49;;;;;;;9.77;3.10;;;2.90;66.80;;;;;;5074911;28;46552;-67
2021/12/08 08:38:21;;;;;;;5.13;3.00;;;3.10;66.50;;;;;;5065529;28;46593;-66
2021/12/08 08:40:57;;;;;;;7.60;3.70;;;3.10;66.30;;;;;;5083900;27;46248;-66
2021/12/08 08:43:23;;;;;;;9.68;4.90;;;3.20;66.50;;;;;;5078462;27;46545;-66
2021/12/08 08:46:06;;;;;;;5.55;3.45;;;3.20;66.40;;;;;;5069409;28;46458;-67
2021/12/08 08:48:42;;;;;;;6.85;3.55;;;3.20;66.30;;;;;;5075940;28;48053;-66
2021/12/08 08:51:22;;;;;;;7.28;4.10;;;3.10;66.70;;;;;;5080629;27;46446;-66
2021/12/08 08:53:53;;;;;;;27.63;13.18;;;3.10;66.80;;;;;;5075013;28;46371;-67
2021/12/08 08:56:27;;;;;;;93.70;39.57;;;3.20;67.10;;;;;;5073375;28;46291;-67
2021/12/08 08:58:58;;;;;;;49.10;23.67;;;3.30;67.00;;;;;;5077658;27;47212;-68
2021/12/08 09:01:33;;;;;;;10.27;5.07;;;3.50;66.60;;;;;;5067428;28;46494;-69
2021/12/08 09:04:12;;;;;;;21.23;11.48;;;3.70;66.20;;;;;;5069794;28;46416;-68
2021/12/08 09:06:43;;;;;;;6.63;4.00;;;3.90;66.40;;;;;;5071623;28;46364;-67
2021/12/08 09:09:13;;;;;;;7.43;4.72;;;4.00;66.00;;;;;;5070957;28;47192;-68
2021/12/08 09:11:50;;;;;;;15.25;8.57;;;4.10;66.00;;;;;;5075310;28;46467;-67
2021/12/08 09:14:25;;;;;;;4.88;3.35;;;4.10;65.80;;;;;;5073013;28;46323;-66
2021/12/08 09:16:56;;;;;;;4.00;3.23;;;4.20;65.70;;;;;;5078007;28;46323;-66
2021/12/08 09:19:33;;;;;;;4.33;2.90;;;4.30;65.60;;;;;;5066040;27;47767;-68
2021/12/08 09:22:18;;;;;;;5.28;3.60;;;4.40;65.50;;;;;;5065496;28;46315;-66
2021/12/08 09:24:59;;;;;;;6.03;4.75;;;4.50;65.60;;;;;;5079749;27;46328;-68
2021/12/08 09:27:35;;;;;;;9.27;4.27;;;4.50;65.60;;;;;;5073400;28;46469;-68
2021/12/08 09:30:18;;;;;;;6.77;4.77;;;4.50;65.80;;;;;;5088260;27;47933;-68
2021/12/08 09:32:48;;;;;;;8.05;5.22;;;4.60;65.80;;;;;;5069756;28;46445;-68
2021/12/08 09:35:43;;;;;;;7.00;5.15;;;4.70;66.20;;;;;;5070593;27;46456;-67
2021/12/08 09:38:35;;;;;;;9.45;5.45;;;4.80;66.00;;;;;;5067511;27;45883;-68
2021/12/08 09:41:26;;;;;;;5.40;3.70;;;4.90;65.80;;;;;;5074785;27;47849;-67
2021/12/08 09:43:58;;;;;;;15.80;3.67;;;5.00;65.90;;;;;;5073302;28;46446;-69
2021/12/08 09:46:30;;;;;;;5.70;3.83;;;5.00;66.00;;;;;;5075470;27;46289;-68
2021/12/08 09:48:56;;;;;;;4.40;3.47;;;5.00;66.00;;;;;;5084189;27;46458;-67
2021/12/08 09:51:24;;;;;;;6.50;3.33;;;5.00;66.30;;;;;;5081748;28;48081;-67
2021/12/08 09:53:51;;;;;;;6.88;2.95;;;5.00;66.30;;;;;;5100315;27;45781;-68
2021/12/08 09:56:16;;;;;;;5.47;3.70;;;4.90;66.50;;;;;;5078634;28;46313;-67
2021/12/08 09:58:43;;;;;;;9.80;4.60;;;4.90;66.60;;;;;;5072351;27;46221;-68
2021/12/08 10:01:15;;;;;;;7.17;4.70;;;4.80;66.90;;;;;;5070270;28;47986;-68
2021/12/08 10:03:41;;;;;;;6.80;4.07;;;4.60;67.40;;;;;;5069719;27;46501;-68
2021/12/08 10:06:09;;;;;;;9.95;6.75;;;4.50;67.20;;;;;;5073566;27;46328;-68
2021/12/08 10:08:35;;;;;;;19.10;9.47;;;4.50;67.30;;;;;;5075564;27;46510;-67
2021/12/08 10:11:00;;;;;;;16.27;9.23;;;4.40;67.50;;;;;;5074557;28;48788;-67
2021/12/08 10:13:27;;;;;;;16.13;7.77;;;4.50;67.40;;;;;;5070153;28;46465;-67
2021/12/08 10:15:52;;;;;;;16.13;7.70;;;4.60;67.10;;;;;;5066104;28;46446;-68
2021/12/08 10:18:19;;;;;;;17.17;9.33;;;4.60;66.60;;;;;;5070049;27;46431;-67
2021/12/08 10:20:50;;;;;;;13.13;8.33;;;4.60;66.60;;;;;;5071998;27;46425;-67
2021/12/08 10:23:16;;;;;;;9.57;5.43;;;4.60;66.60;;;;;;5074054;27;46446;-68
2021/12/08 10:25:49;;;;;;;5.57;3.90;;;4.60;66.90;;;;;;5076993;27;46292;-67
2021/12/08 10:28:19;;;;;;;5.30;3.57;;;4.60;67.00;;;;;;5072744;28;46691;-68
2021/12/08 10:30:54;;;;;;;6.60;3.47;;;4.60;67.20;;;;;;5067313;27;46391;-68
2021/12/08 10:33:59;;;;;;;4.75;3.47;;;4.40;67.90;;;;;;5075029;27;46720;-67
2021/12/08 10:39:13;;;;;;;6.07;5.17;;;4.50;67.50;;;;;;5069214;28;46482;-67
2021/12/08 10:41:52;;;;;;;4.50;3.63;;;4.60;67.30;;;;;;5074346;28;46294;-67
2021/12/08 10:44:46;;;;;;;10.45;7.20;;;4.70;67.10;;;;;;5066191;28;45858;-67
2021/12/08 10:47:16;;;;;;;8.83;6.43;;;4.70;67.00;;;;;;5067451;28;46297;-69
2021/12/08 10:55:16;;;;;;;46.87;18.47;;;4.90;66.60;;;;;;5074698;28;46441;-70
2021/12/08 10:57:44;;;;;;;32.20;14.17;;;5.00;66.30;;;;;;5078260;28;46321;-69
2021/12/08 11:00:13;;;;;;;22.70;11.70;;;5.00;66.40;;;;;;5088831;27;45915;-69
2021/12/08 11:03:02;;;;;;;23.27;10.73;;;4.90;66.30;;;;;;5077842;28;47268;-69
2021/12/08 11:05:43;;;;;;;6.55;4.70;;;4.90;66.70;;;;;;5070821;27;46336;-69
2021/12/08 11:08:25;;;;;;;5.75;3.85;;;4.90;66.90;;;;;;5070225;28;46368;-69
2021/12/08 11:10:54;;;;;;;7.27;4.40;;;4.90;67.00;;;;;;5070990;27;46308;-69
2021/12/08 11:13:30;;;;;;;6.70;4.97;;;4.90;67.20;;;;;;5071158;27;48033;-69
2021/12/08 11:16:08;;;;;;;6.20;4.03;;;4.90;67.30;;;;;;5080673;28;46578;-68
2021/12/08 11:18:39;;;;;;;6.93;4.73;;;5.00;67.10;;;;;;5078898;27;46332;-69
2021/12/08 11:21:18;;;;;;;6.77;4.50;;;5.10;67.10;;;;;;5073000;28;46439;-68
2021/12/08 11:23:46;;;;;;;22.20;15.10;;;5.10;67.10;;;;;;5094937;27;49085;-69
2021/12/08 11:26:27;;;;;;;11.65;7.90;;;5.10;67.00;;;;;;5074050;27;46241;-70
2021/12/08 11:28:59;;;;;;;15.60;8.40;;;5.00;67.10;;;;;;5070608;28;45791;-70
2021/12/08 11:31:30;;;;;;;12.23;8.37;;;4.80;67.70;;;;;;5087042;28;46421;-69
2021/12/08 11:34:04;;;;;;;17.43;7.87;;;4.80;67.90;;;;;;5085108;28;48029;-69
2021/12/08 11:36:33;;;;;;;8.13;5.65;;;5.00;67.20;;;;;;5078316;28;46437;-70
2021/12/08 11:39:07;;;;;;;7.33;5.27;;;5.20;66.60;;;;;;5077995;28;46262;-68
2021/12/08 11:41:38;;;;;;;6.50;4.40;;;5.30;66.10;;;;;;5074890;28;46581;-69
2021/12/08 11:44:09;;;;;;;6.13;4.63;;;5.30;65.80;;;;;;5079658;27;46964;-69
2021/12/08 11:46:41;;;;;;;5.05;3.80;;;5.30;66.00;;;;;;5082119;28;46336;-69
2021/12/08 11:49:09;;;;;;;4.80;3.47;;;5.20;66.10;;;;;;5077844;28;46289;-69
2021/12/08 11:51:44;;;;;;;5.67;3.83;;;5.20;66.30;;;;;;5075167;28;46338;-69
2021/12/08 11:54:28;;;;;;;4.50;3.63;;;5.30;66.30;;;;;;5072456;28;48179;-69
2021/12/08 11:57:10;;;;;;;7.38;6.45;;;5.30;66.20;;;;;;5079901;28;46490;-69
2021/12/08 11:59:52;;;;;;;4.77;4.20;;;5.30;66.40;;;;;;5071645;28;46590;-69
2021/12/08 12:02:21;;;;;;;4.27;3.53;;;5.30;66.40;;;;;;5075355;28;46281;-70
2021/12/08 12:04:47;;;;;;;4.80;3.53;;;5.30;66.60;;;;;;5075939;27;48059;-70
2021/12/08 12:07:14;;;;;;;4.30;3.63;;;5.30;66.80;;;;;;5074170;27;46425;-70
2021/12/08 12:09:41;;;;;;;4.93;3.47;;;5.40;66.90;;;;;;5073705;28;46525;-71
2021/12/08 12:12:09;;;;;;;6.93;4.17;;;5.50;66.70;;;;;;5077686;27;46327;-70
2021/12/08 12:14:35;;;;;;;5.43;3.83;;;5.60;66.60;;;;;;5075450;27;46409;-70
2021/12/08 12:17:01;;;;;;;4.57;4.13;;;5.60;66.90;;;;;;5070116;28;46399;-70
2021/12/08 12:19:33;;;;;;;6.10;4.20;;;5.80;66.50;;;;;;5066962;28;46606;-69
2021/12/08 12:22:36;;;;;;;6.00;4.20;;;5.90;66.20;;;;;;5074032;28;46399;-69
2021/12/08 12:25:22;;;;;;;6.00;4.07;;;6.00;65.90;;;;;;5071260;28;47199;-70
2021/12/08 12:28:26;;;;;;;5.27;3.97;;;6.00;66.00;;;;;;5072919;28;46515;-69
2021/12/08 12:31:01;;;;;;;5.40;4.30;;;6.00;66.30;;;;;;5047406;28;46373;-69
2021/12/08 12:33:27;;;;;;;4.67;3.50;;;6.10;66.40;;;;;;5071955;27;46430;-68
2021/12/08 12:35:56;;;;;;;5.47;3.97;;;6.20;66.30;;;;;;5074926;28;47705;-68
2021/12/08 12:38:36;;;;;;;13.83;7.27;;;6.30;66.20;;;;;;5076754;27;46370;-69
2021/12/08 12:41:21;;;;;;;12.47;6.87;;;6.50;65.60;;;;;;5080708;28;45871;-69
2021/12/08 12:43:49;;;;;;;10.27;6.20;;;6.50;65.20;;;;;;5071772;28;46400;-69
2021/12/08 12:46:16;;;;;;;7.53;5.40;;;6.50;64.70;;;;;;5077623;28;48338;-69
2021/12/08 12:48:50;;;;;;;9.47;5.97;;;6.50;64.10;;;;;;5074226;28;46343;-69
2021/12/08 12:51:17;;;;;;;6.40;4.43;;;6.40;63.90;;;;;;5065753;28;46268;-69
2021/12/08 12:53:46;;;;;;;5.50;4.90;;;6.20;64.30;;;;;;5078431;27;46579;-69
2021/12/08 12:56:34;;;;;;;5.60;4.77;;;6.10;65.70;;;;;;5073376;27;46391;-69
2021/12/08 12:59:15;;;;;;;5.03;4.13;;;5.90;64.60;;;;;;5072538;28;46566;-69
2021/12/08 13:01:46;;;;;;;4.43;3.93;;;5.70;64.70;;;;;;5094015;27;46399;-69
2021/12/08 13:04:25;;;;;;;5.10;4.50;;;5.50;64.90;;;;;;5074966;28;46300;-69
2021/12/08 13:06:57;;;;;;;5.40;3.70;;;5.50;65.00;;;;;;5072499;28;47275;-69
2021/12/08 13:09:33;;;;;;;5.40;4.47;;;5.40;65.10;;;;;;5080096;28;46523;-69
2021/12/08 13:12:17;;;;;;;5.23;3.80;;;5.30;65.10;;;;;;5070046;28;46442;-69
2021/12/08 13:14:44;;;;;;;5.87;4.60;;;5.20;65.30;;;;;;5078208;28;46038;-70
2021/12/08 13:17:14;;;;;;;7.47;5.60;;;5.10;65.50;;;;;;5070341;28;46087;-69
2021/12/08 13:19:42;;;;;;;6.97;5.70;;;5.10;65.60;;;;;;5070164;28;46265;-69
2021/12/08 13:22:08;;;;;;;9.40;5.60;;;5.10;65.80;;;;;;5073950;28;45811;-69
2021/12/08 13:24:34;;;;;;;11.67;6.63;;;5.00;65.80;;;;;;5076344;28;46535;-69
2021/12/08 13:27:06;;;;;;;8.50;5.83;;;4.80;66.10;;;;;;5080580;27;47751;-70
2021/12/08 13:29:35;;;;;;;7.37;4.40;;;4.80;66.20;;;;;;5068806;27;46531;-69
2021/12/08 13:32:11;;;;;;;5.37;4.20;;;4.60;66.40;;;;;;5066742;27;46506;-69
2021/12/08 13:35:00;;;;;;;7.30;5.80;;;4.50;66.80;;;;;;5073094;28;46529;-69
2021/12/08 13:37:29;;;;;;;7.60;6.07;;;4.40;67.00;;;;;;5076151;28;48983;-69
2021/12/08 13:40:04;;;;;;;6.75;4.82;;;4.30;66.90;;;;;;5070494;27;46494;-69
2021/12/08 13:42:32;;;;;;;11.60;7.18;;;4.30;67.00;;;;;;5077263;28;46589;-69
2021/12/08 13:45:00;;;;;;;6.90;5.67;;;4.30;67.40;;;;;;5076504;28;46489;-69
2021/12/08 13:47:33;;;;;;;5.93;3.90;;;4.20;67.50;;;;;;5077895;27;46310;-69
2021/12/08 13:50:21;;;;;;;6.38;5.07;;;4.20;67.90;;;;;;5074573;27;45855;-69
2021/12/08 13:53:09;;;;;;;5.97;4.17;;;4.20;67.90;;;;;;5069169;28;46296;-68
2021/12/08 13:55:41;;;;;;;4.97;3.47;;;4.30;67.60;;;;;;5071911;28;46391;-68
2021/12/08 13:58:14;;;;;;;5.07;3.47;;;4.30;67.30;;;;;;5079156;28;47337;-70
2021/12/08 14:00:41;;;;;;;3.20;2.85;;;4.30;67.40;;;;;;5072538;28;46609;-68
2021/12/08 14:03:18;;;;;;;4.73;3.50;;;4.30;67.50;;;;;;5071048;28;46509;-69